sensor_id;sensor_type;location;lat;lon;timestamp;pressure;altitude;pressure_sealevel;temperature;humidity
75745;BME280;64359;51.366;-0.222;2023-04-03T00:00:32;102771.36;;;22.09;49.80
75745;BME280;64359;51.366;-0.222;2023-04-03T00:01:36;102769.92;;;22.09;49.78
75745;BME280;64359;51.366;-0.222;2023-04-03T00:02:41;102769.73;;;22.09;49.66
75745;BME280;64359;51.366;-0.222;2023-04-03T00:03:45;102767.35;;;22.09;49.80
75745;BME280;64359;51.366;-0.222;2023-04-03T00:04:49;102767.67;;;22.10;49.84
75745;BME280;64359;51.366;-0.222;2023-04-03T00:05:54;102766.61;;;22.09;49.69
75745;BME280;64359;51.366;-0.222;2023-04-03T00:06:58;102767.46;;;22.10;49.59
75745;BME280;64359;51.366;-0.222;2023-04-03T00:08:03;102763.64;;;22.10;49.66
75745;BME280;64359;51.366;-0.222;2023-04-03T00:09:10;102763.77;;;22.11;49.76
75745;BME280;64359;51.366;-0.222;2023-04-03T00:10:15;102762.84;;;22.11;49.82
75745;BME280;64359;51.366;-0.222;2023-04-03T00:11:19;102762.27;;;22.11;49.66
75745;BME280;64359;51.366;-0.222;2023-04-03T00:12:24;102762.38;;;22.12;49.63
75745;BME280;64359;51.366;-0.222;2023-04-03T00:13:29;102761.97;;;22.12;49.43
75745;BME280;64359;51.366;-0.222;2023-04-03T00:14:33;102759.80;;;22.12;49.65
75745;BME280;64359;51.366;-0.222;2023-04-03T00:15:38;102760.65;;;22.13;49.45
75745;BME280;64359;51.366;-0.222;2023-04-03T00:16:43;102763.34;;;22.13;49.39
75745;BME280;64359;51.366;-0.222;2023-04-03T00:17:47;102762.05;;;22.13;49.28
75745;BME280;64359;51.366;-0.222;2023-04-03T00:18:51;102763.50;;;22.13;49.27
75745;BME280;64359;51.366;-0.222;2023-04-03T00:19:56;102760.90;;;22.14;49.48
75745;BME280;64359;51.366;-0.222;2023-04-03T00:21:00;102762.56;;;22.14;49.20
75745;BME280;64359;51.366;-0.222;2023-04-03T00:22:05;102762.39;;;22.14;49.27
75745;BME280;64359;51.366;-0.222;2023-04-03T00:23:09;102762.70;;;22.14;49.42
75745;BME280;64359;51.366;-0.222;2023-04-03T00:24:14;102761.61;;;22.14;49.39
75745;BME280;64359;51.366;-0.222;2023-04-03T00:25:18;102764.33;;;22.14;49.57
75745;BME280;64359;51.366;-0.222;2023-04-03T00:26:23;102761.98;;;22.14;49.35
75745;BME280;64359;51.366;-0.222;2023-04-03T00:27:27;102761.95;;;22.14;49.11
75745;BME280;64359;51.366;-0.222;2023-04-03T00:28:31;102756.02;;;22.14;49.11
75745;BME280;64359;51.366;-0.222;2023-04-03T00:29:36;102755.81;;;22.14;49.27
75745;BME280;64359;51.366;-0.222;2023-04-03T00:30:40;102753.10;;;22.14;49.14
75745;BME280;64359;51.366;-0.222;2023-04-03T00:31:45;102753.07;;;22.14;49.22
75745;BME280;64359;51.366;-0.222;2023-04-03T00:32:50;102751.95;;;22.15;49.23
75745;BME280;64359;51.366;-0.222;2023-04-03T00:33:55;102750.88;;;22.15;49.29
75745;BME280;64359;51.366;-0.222;2023-04-03T00:34:59;102747.38;;;22.15;49.29
75745;BME280;64359;51.366;-0.222;2023-04-03T00:36:08;102748.49;;;22.15;49.25
75745;BME280;64359;51.366;-0.222;2023-04-03T00:37:11;102747.92;;;22.15;49.07
75745;BME280;64359;51.366;-0.222;2023-04-03T00:38:16;102746.73;;;22.13;49.18
75745;BME280;64359;51.366;-0.222;2023-04-03T00:39:20;102746.02;;;22.13;49.15
75745;BME280;64359;51.366;-0.222;2023-04-03T00:40:26;102743.85;;;22.12;49.20
75745;BME280;64359;51.366;-0.222;2023-04-03T00:41:30;102742.97;;;22.12;49.12
75745;BME280;64359;51.366;-0.222;2023-04-03T00:42:35;102744.77;;;22.13;49.08
75745;BME280;64359;51.366;-0.222;2023-04-03T00:43:39;102741.65;;;22.13;49.24
75745;BME280;64359;51.366;-0.222;2023-04-03T00:46:23;102745.36;;;22.12;49.14
75745;BME280;64359;51.366;-0.222;2023-04-03T00:47:27;102742.28;;;22.12;49.29
75745;BME280;64359;51.366;-0.222;2023-04-03T00:48:34;102740.74;;;22.11;49.29
75745;BME280;64359;51.366;-0.222;2023-04-03T00:49:41;102745.46;;;22.11;49.23
75745;BME280;64359;51.366;-0.222;2023-04-03T00:50:46;102745.14;;;22.11;49.27
75745;BME280;64359;51.366;-0.222;2023-04-03T00:51:51;102744.40;;;22.11;49.11
75745;BME280;64359;51.366;-0.222;2023-04-03T00:52:56;102744.63;;;22.10;49.07
75745;BME280;64359;51.366;-0.222;2023-04-03T00:54:05;102745.20;;;22.10;48.98
75745;BME280;64359;51.366;-0.222;2023-04-03T00:55:11;102746.69;;;22.09;49.06
75745;BME280;64359;51.366;-0.222;2023-04-03T00:56:18;102749.10;;;22.09;49.02
75745;BME280;64359;51.366;-0.222;2023-04-03T00:57:25;102747.87;;;22.09;48.99
75745;BME280;64359;51.366;-0.222;2023-04-03T00:58:35;102747.22;;;22.08;48.98
75745;BME280;64359;51.366;-0.222;2023-04-03T00:59:46;102744.56;;;22.07;48.94
75745;BME280;64359;51.366;-0.222;2023-04-03T01:00:55;102743.52;;;22.07;48.88
75745;BME280;64359;51.366;-0.222;2023-04-03T01:02:02;102744.63;;;22.06;48.90
75745;BME280;64359;51.366;-0.222;2023-04-03T01:03:07;102740.40;;;22.05;48.75
75745;BME280;64359;51.366;-0.222;2023-04-03T01:04:28;102739.52;;;22.05;48.89
75745;BME280;64359;51.366;-0.222;2023-04-03T01:05:33;102737.45;;;22.03;48.84
75745;BME280;64359;51.366;-0.222;2023-04-03T01:06:38;102738.55;;;22.03;48.96
75745;BME280;64359;51.366;-0.222;2023-04-03T01:07:42;102738.75;;;22.03;48.80
75745;BME280;64359;51.366;-0.222;2023-04-03T01:08:48;102737.87;;;22.03;48.97
75745;BME280;64359;51.366;-0.222;2023-04-03T01:09:56;102738.47;;;22.02;49.01
75745;BME280;64359;51.366;-0.222;2023-04-03T01:11:00;102740.27;;;22.02;49.19
75745;BME280;64359;51.366;-0.222;2023-04-03T01:12:19;102739.02;;;22.02;49.24
75745;BME280;64359;51.366;-0.222;2023-04-03T01:13:26;102744.07;;;22.02;49.30
75745;BME280;64359;51.366;-0.222;2023-04-03T01:14:31;102745.33;;;22.02;49.50
75745;BME280;64359;51.366;-0.222;2023-04-03T01:15:36;102744.92;;;22.03;49.33
75745;BME280;64359;51.366;-0.222;2023-04-03T01:16:41;102741.13;;;22.03;49.48
75745;BME280;64359;51.366;-0.222;2023-04-03T01:17:46;102741.96;;;22.03;49.19
75745;BME280;64359;51.366;-0.222;2023-04-03T01:18:51;102741.37;;;22.04;49.32
75745;BME280;64359;51.366;-0.222;2023-04-03T01:20:02;102741.35;;;22.05;49.23
75745;BME280;64359;51.366;-0.222;2023-04-03T01:21:27;102741.11;;;22.05;49.33
75745;BME280;64359;51.366;-0.222;2023-04-03T01:22:43;102741.12;;;22.05;49.20
75745;BME280;64359;51.366;-0.222;2023-04-03T01:24:05;102742.85;;;22.06;49.31
75745;BME280;64359;51.366;-0.222;2023-04-03T01:25:12;102737.98;;;22.06;49.14
75745;BME280;64359;51.366;-0.222;2023-04-03T01:26:16;102743.34;;;22.07;49.10
75745;BME280;64359;51.366;-0.222;2023-04-03T01:27:21;102741.98;;;22.08;49.24
75745;BME280;64359;51.366;-0.222;2023-04-03T01:28:27;102741.02;;;22.08;49.16
75745;BME280;64359;51.366;-0.222;2023-04-03T01:29:32;102742.79;;;22.09;49.20
75745;BME280;64359;51.366;-0.222;2023-04-03T01:30:41;102742.15;;;22.10;49.21
75745;BME280;64359;51.366;-0.222;2023-04-03T01:31:50;102738.30;;;22.10;49.33
75745;BME280;64359;51.366;-0.222;2023-04-03T01:32:54;102740.20;;;22.11;49.12
75745;BME280;64359;51.366;-0.222;2023-04-03T01:33:58;102740.54;;;22.11;49.37
75745;BME280;64359;51.366;-0.222;2023-04-03T01:35:03;102739.20;;;22.12;49.08
75745;BME280;64359;51.366;-0.222;2023-04-03T01:36:09;102741.52;;;22.13;49.13
75745;BME280;64359;51.366;-0.222;2023-04-03T01:37:13;102739.14;;;22.13;49.26
75745;BME280;64359;51.366;-0.222;2023-04-03T01:38:18;102745.05;;;22.13;48.98
75745;BME280;64359;51.366;-0.222;2023-04-03T01:39:23;102740.78;;;22.14;49.10
75745;BME280;64359;51.366;-0.222;2023-04-03T01:40:28;102736.30;;;22.14;49.09
75745;BME280;64359;51.366;-0.222;2023-04-03T01:41:33;102739.50;;;22.14;48.91
75745;BME280;64359;51.366;-0.222;2023-04-03T01:42:37;102736.77;;;22.15;49.02
75745;BME280;64359;51.366;-0.222;2023-04-03T01:43:41;102738.48;;;22.16;48.87
75745;BME280;64359;51.366;-0.222;2023-04-03T01:44:46;102735.50;;;22.15;48.83
75745;BME280;64359;51.366;-0.222;2023-04-03T01:45:50;102733.69;;;22.14;48.93
75745;BME280;64359;51.366;-0.222;2023-04-03T01:46:57;102735.30;;;22.15;48.81
75745;BME280;64359;51.366;-0.222;2023-04-03T01:48:01;102734.55;;;22.15;48.86
75745;BME280;64359;51.366;-0.222;2023-04-03T01:49:06;102731.87;;;22.15;48.83
75745;BME280;64359;51.366;-0.222;2023-04-03T01:50:10;102731.66;;;22.15;48.71
75745;BME280;64359;51.366;-0.222;2023-04-03T01:51:15;102734.89;;;22.15;48.75
75745;BME280;64359;51.366;-0.222;2023-04-03T01:52:19;102732.95;;;22.15;48.76
75745;BME280;64359;51.366;-0.222;2023-04-03T01:53:23;102734.44;;;22.14;48.88
75745;BME280;64359;51.366;-0.222;2023-04-03T01:54:27;102732.95;;;22.15;48.92
75745;BME280;64359;51.366;-0.222;2023-04-03T01:55:32;102730.07;;;22.15;49.00
75745;BME280;64359;51.366;-0.222;2023-04-03T01:56:36;102732.78;;;22.15;48.96
75745;BME280;64359;51.366;-0.222;2023-04-03T01:57:42;102734.24;;;22.14;48.87
75745;BME280;64359;51.366;-0.222;2023-04-03T01:58:46;102732.38;;;22.15;48.91
75745;BME280;64359;51.366;-0.222;2023-04-03T01:59:50;102733.80;;;22.15;48.90
75745;BME280;64359;51.366;-0.222;2023-04-03T02:00:55;102732.89;;;22.15;48.98
75745;BME280;64359;51.366;-0.222;2023-04-03T02:01:59;102736.27;;;22.16;48.75
75745;BME280;64359;51.366;-0.222;2023-04-03T02:03:04;102735.71;;;22.16;48.70
75745;BME280;64359;51.366;-0.222;2023-04-03T02:04:08;102734.27;;;22.16;48.87
75745;BME280;64359;51.366;-0.222;2023-04-03T02:05:12;102735.52;;;22.16;48.73
75745;BME280;64359;51.366;-0.222;2023-04-03T02:06:17;102736.55;;;22.17;48.87
75745;BME280;64359;51.366;-0.222;2023-04-03T02:07:21;102736.52;;;22.17;48.81
75745;BME280;64359;51.366;-0.222;2023-04-03T02:08:26;102737.23;;;22.17;48.91
75745;BME280;64359;51.366;-0.222;2023-04-03T02:09:30;102737.02;;;22.17;48.92
75745;BME280;64359;51.366;-0.222;2023-04-03T02:10:34;102736.52;;;22.17;48.79
75745;BME280;64359;51.366;-0.222;2023-04-03T02:11:38;102738.85;;;22.17;48.92
75745;BME280;64359;51.366;-0.222;2023-04-03T02:12:43;102735.73;;;22.18;48.84
75745;BME280;64359;51.366;-0.222;2023-04-03T02:13:48;102739.16;;;22.18;48.84
75745;BME280;64359;51.366;-0.222;2023-04-03T02:14:52;102738.71;;;22.17;48.85
75745;BME280;64359;51.366;-0.222;2023-04-03T02:15:56;102740.00;;;22.17;48.91
75745;BME280;64359;51.366;-0.222;2023-04-03T02:17:02;102741.73;;;22.16;48.86
75745;BME280;64359;51.366;-0.222;2023-04-03T02:18:11;102739.98;;;22.15;48.87
75745;BME280;64359;51.366;-0.222;2023-04-03T02:19:16;102740.41;;;22.14;48.92
75745;BME280;64359;51.366;-0.222;2023-04-03T02:20:20;102743.30;;;22.14;48.89
75745;BME280;64359;51.366;-0.222;2023-04-03T02:21:25;102744.48;;;22.13;48.65
75745;BME280;64359;51.366;-0.222;2023-04-03T02:22:29;102742.13;;;22.13;48.57
75745;BME280;64359;51.366;-0.222;2023-04-03T02:23:34;102744.23;;;22.12;48.78
75745;BME280;64359;51.366;-0.222;2023-04-03T02:24:39;102742.45;;;22.12;48.80
75745;BME280;64359;51.366;-0.222;2023-04-03T02:25:44;102742.31;;;22.12;48.94
75745;BME280;64359;51.366;-0.222;2023-04-03T02:26:48;102741.26;;;22.11;48.71
75745;BME280;64359;51.366;-0.222;2023-04-03T02:27:52;102741.52;;;22.11;48.55
75745;BME280;64359;51.366;-0.222;2023-04-03T02:28:57;102737.58;;;22.10;48.58
75745;BME280;64359;51.366;-0.222;2023-04-03T02:30:01;102738.01;;;22.09;48.61
75745;BME280;64359;51.366;-0.222;2023-04-03T02:31:07;102736.07;;;22.09;48.72
75745;BME280;64359;51.366;-0.222;2023-04-03T02:32:11;102734.98;;;22.09;48.78
75745;BME280;64359;51.366;-0.222;2023-04-03T02:33:16;102737.19;;;22.09;48.93
75745;BME280;64359;51.366;-0.222;2023-04-03T02:34:20;102739.02;;;22.08;48.70
75745;BME280;64359;51.366;-0.222;2023-04-03T02:35:24;102739.62;;;22.08;48.75
75745;BME280;64359;51.366;-0.222;2023-04-03T02:36:28;102737.98;;;22.08;48.79
75745;BME280;64359;51.366;-0.222;2023-04-03T02:37:33;102738.13;;;22.08;48.86
75745;BME280;64359;51.366;-0.222;2023-04-03T02:38:37;102736.95;;;22.09;48.97
75745;BME280;64359;51.366;-0.222;2023-04-03T02:39:42;102736.55;;;22.10;48.86
75745;BME280;64359;51.366;-0.222;2023-04-03T02:40:46;102741.04;;;22.10;49.00
75745;BME280;64359;51.366;-0.222;2023-04-03T02:41:50;102737.00;;;22.10;48.93
75745;BME280;64359;51.366;-0.222;2023-04-03T02:42:55;102734.80;;;22.11;48.45
75745;BME280;64359;51.366;-0.222;2023-04-03T02:43:59;102733.23;;;22.12;48.28
75745;BME280;64359;51.366;-0.222;2023-04-03T02:45:05;102731.52;;;22.13;48.09
75745;BME280;64359;51.366;-0.222;2023-04-03T02:46:09;102732.16;;;22.14;48.13
75745;BME280;64359;51.366;-0.222;2023-04-03T02:47:13;102732.78;;;22.15;48.02
75745;BME280;64359;51.366;-0.222;2023-04-03T02:48:18;102729.12;;;22.15;48.09
75745;BME280;64359;51.366;-0.222;2023-04-03T02:49:23;102729.71;;;22.16;48.12
75745;BME280;64359;51.366;-0.222;2023-04-03T02:50:27;102730.64;;;22.16;48.11
75745;BME280;64359;51.366;-0.222;2023-04-03T02:51:31;102732.31;;;22.18;48.36
75745;BME280;64359;51.366;-0.222;2023-04-03T02:52:36;102735.48;;;22.18;48.22
75745;BME280;64359;51.366;-0.222;2023-04-03T02:53:40;102728.73;;;22.19;48.64
75745;BME280;64359;51.366;-0.222;2023-04-03T02:54:44;102734.84;;;22.19;48.68
75745;BME280;64359;51.366;-0.222;2023-04-03T02:55:49;102738.72;;;22.20;48.72
75745;BME280;64359;51.366;-0.222;2023-04-03T02:56:53;102737.30;;;22.20;48.68
75745;BME280;64359;51.366;-0.222;2023-04-03T02:57:57;102736.01;;;22.20;48.72
75745;BME280;64359;51.366;-0.222;2023-04-03T02:59:02;102734.11;;;22.21;48.69
75745;BME280;64359;51.366;-0.222;2023-04-03T03:00:08;102735.34;;;22.22;48.63
75745;BME280;64359;51.366;-0.222;2023-04-03T03:01:13;102729.02;;;22.21;48.60
75745;BME280;64359;51.366;-0.222;2023-04-03T03:02:17;102733.69;;;22.22;48.56
75745;BME280;64359;51.366;-0.222;2023-04-03T03:03:21;102731.31;;;22.22;48.60
75745;BME280;64359;51.366;-0.222;2023-04-03T03:04:26;102729.86;;;22.22;48.71
75745;BME280;64359;51.366;-0.222;2023-04-03T03:05:30;102729.80;;;22.21;48.43
75745;BME280;64359;51.366;-0.222;2023-04-03T03:06:35;102728.52;;;22.21;48.71
75745;BME280;64359;51.366;-0.222;2023-04-03T03:07:39;102730.29;;;22.21;48.67
75745;BME280;64359;51.366;-0.222;2023-04-03T03:08:44;102730.57;;;22.20;48.56
75745;BME280;64359;51.366;-0.222;2023-04-03T03:09:48;102729.13;;;22.20;48.57
75745;BME280;64359;51.366;-0.222;2023-04-03T03:10:53;102728.98;;;22.20;48.64
75745;BME280;64359;51.366;-0.222;2023-04-03T03:11:57;102728.61;;;22.20;48.69
75745;BME280;64359;51.366;-0.222;2023-04-03T03:13:01;102724.86;;;22.20;48.53
75745;BME280;64359;51.366;-0.222;2023-04-03T03:14:06;102732.61;;;22.20;48.51
75745;BME280;64359;51.366;-0.222;2023-04-03T03:15:11;102727.00;;;22.20;48.46
75745;BME280;64359;51.366;-0.222;2023-04-03T03:16:16;102726.19;;;22.19;48.45
75745;BME280;64359;51.366;-0.222;2023-04-03T03:17:20;102726.08;;;22.18;48.46
75745;BME280;64359;51.366;-0.222;2023-04-03T03:18:24;102722.67;;;22.18;48.38
75745;BME280;64359;51.366;-0.222;2023-04-03T03:19:29;102722.56;;;22.17;48.36
75745;BME280;64359;51.366;-0.222;2023-04-03T03:20:33;102724.63;;;22.16;48.33
75745;BME280;64359;51.366;-0.222;2023-04-03T03:21:37;102724.97;;;22.17;48.19
75745;BME280;64359;51.366;-0.222;2023-04-03T03:22:42;102723.98;;;22.16;48.30
75745;BME280;64359;51.366;-0.222;2023-04-03T03:23:46;102724.35;;;22.16;48.05
75745;BME280;64359;51.366;-0.222;2023-04-03T03:24:50;102724.95;;;22.15;48.19
75745;BME280;64359;51.366;-0.222;2023-04-03T03:25:58;102724.46;;;22.14;48.16
75745;BME280;64359;51.366;-0.222;2023-04-03T03:27:03;102721.24;;;22.14;48.32
75745;BME280;64359;51.366;-0.222;2023-04-03T03:28:08;102722.89;;;22.14;48.32
75745;BME280;64359;51.366;-0.222;2023-04-03T03:29:12;102723.64;;;22.14;48.58
75745;BME280;64359;51.366;-0.222;2023-04-03T03:30:17;102720.04;;;22.14;48.39
75745;BME280;64359;51.366;-0.222;2023-04-03T03:31:21;102721.10;;;22.14;48.54
75745;BME280;64359;51.366;-0.222;2023-04-03T03:32:26;102719.48;;;22.14;48.57
75745;BME280;64359;51.366;-0.222;2023-04-03T03:33:30;102720.92;;;22.14;48.54
75745;BME280;64359;51.366;-0.222;2023-04-03T03:34:35;102724.50;;;22.14;48.59
75745;BME280;64359;51.366;-0.222;2023-04-03T03:35:39;102725.23;;;22.14;48.41
75745;BME280;64359;51.366;-0.222;2023-04-03T03:36:44;102724.52;;;22.14;48.38
75745;BME280;64359;51.366;-0.222;2023-04-03T03:37:49;102725.07;;;22.14;48.54
75745;BME280;64359;51.366;-0.222;2023-04-03T03:38:53;102723.98;;;22.14;48.33
75745;BME280;64359;51.366;-0.222;2023-04-03T03:39:57;102724.36;;;22.14;48.41
75745;BME280;64359;51.366;-0.222;2023-04-03T03:41:02;102722.59;;;22.13;48.54
75745;BME280;64359;51.366;-0.222;2023-04-03T03:42:06;102725.30;;;22.14;48.49
75745;BME280;64359;51.366;-0.222;2023-04-03T03:43:10;102722.59;;;22.14;48.67
75745;BME280;64359;51.366;-0.222;2023-04-03T03:44:15;102720.44;;;22.13;48.43
75745;BME280;64359;51.366;-0.222;2023-04-03T03:45:19;102720.27;;;22.13;48.46
75745;BME280;64359;51.366;-0.222;2023-04-03T03:46:23;102718.48;;;22.13;48.60
75745;BME280;64359;51.366;-0.222;2023-04-03T03:47:28;102717.42;;;22.13;48.53
75745;BME280;64359;51.366;-0.222;2023-04-03T03:48:32;102716.94;;;22.12;48.44
75745;BME280;64359;51.366;-0.222;2023-04-03T03:49:36;102715.71;;;22.12;48.54
75745;BME280;64359;51.366;-0.222;2023-04-03T03:50:41;102718.73;;;22.12;48.40
75745;BME280;64359;51.366;-0.222;2023-04-03T03:51:45;102714.99;;;22.12;48.26
75745;BME280;64359;51.366;-0.222;2023-04-03T03:52:49;102720.05;;;22.11;48.33
75745;BME280;64359;51.366;-0.222;2023-04-03T03:53:54;102722.45;;;22.11;48.41
75745;BME280;64359;51.366;-0.222;2023-04-03T03:54:58;102724.09;;;22.11;48.38
75745;BME280;64359;51.366;-0.222;2023-04-03T03:56:03;102720.89;;;22.11;48.39
75745;BME280;64359;51.366;-0.222;2023-04-03T03:57:07;102719.60;;;22.11;48.36
75745;BME280;64359;51.366;-0.222;2023-04-03T03:58:12;102718.85;;;22.11;48.41
75745;BME280;64359;51.366;-0.222;2023-04-03T03:59:16;102717.98;;;22.11;48.49
75745;BME280;64359;51.366;-0.222;2023-04-03T04:00:21;102719.94;;;22.11;48.62
75745;BME280;64359;51.366;-0.222;2023-04-03T04:01:25;102721.17;;;22.11;48.40
75745;BME280;64359;51.366;-0.222;2023-04-03T04:02:30;102720.98;;;22.12;48.38
75745;BME280;64359;51.366;-0.222;2023-04-03T04:03:34;102717.74;;;22.11;48.42
75745;BME280;64359;51.366;-0.222;2023-04-03T04:04:40;102717.69;;;22.12;48.46
75745;BME280;64359;51.366;-0.222;2023-04-03T04:05:44;102717.30;;;22.12;48.46
75745;BME280;64359;51.366;-0.222;2023-04-03T04:06:49;102721.25;;;22.12;48.41
75745;BME280;64359;51.366;-0.222;2023-04-03T04:07:53;102717.99;;;22.12;48.37
75745;BME280;64359;51.366;-0.222;2023-04-03T04:08:57;102716.87;;;22.13;48.38
75745;BME280;64359;51.366;-0.222;2023-04-03T04:10:02;102717.42;;;22.13;48.32
75745;BME280;64359;51.366;-0.222;2023-04-03T04:11:06;102720.30;;;22.13;48.34
75745;BME280;64359;51.366;-0.222;2023-04-03T04:12:11;102715.96;;;22.13;48.41
75745;BME280;64359;51.366;-0.222;2023-04-03T04:13:15;102716.30;;;22.13;48.32
75745;BME280;64359;51.366;-0.222;2023-04-03T04:14:20;102710.30;;;22.13;48.38
75745;BME280;64359;51.366;-0.222;2023-04-03T04:15:24;102709.53;;;22.14;48.26
75745;BME280;64359;51.366;-0.222;2023-04-03T04:16:29;102713.84;;;22.14;48.24
75745;BME280;64359;51.366;-0.222;2023-04-03T04:17:34;102710.19;;;22.14;48.28
75745;BME280;64359;51.366;-0.222;2023-04-03T04:18:38;102713.35;;;22.15;48.32
75745;BME280;64359;51.366;-0.222;2023-04-03T04:19:43;102713.11;;;22.16;48.36
75745;BME280;64359;51.366;-0.222;2023-04-03T04:20:47;102716.20;;;22.16;48.19
75745;BME280;64359;51.366;-0.222;2023-04-03T04:21:52;102713.08;;;22.16;48.21
75745;BME280;64359;51.366;-0.222;2023-04-03T04:22:56;102714.89;;;22.16;48.32
75745;BME280;64359;51.366;-0.222;2023-04-03T04:24:00;102715.40;;;22.17;48.40
75745;BME280;64359;51.366;-0.222;2023-04-03T04:25:05;102715.94;;;22.17;48.36
75745;BME280;64359;51.366;-0.222;2023-04-03T04:26:10;102716.28;;;22.17;48.26
75745;BME280;64359;51.366;-0.222;2023-04-03T04:27:14;102715.20;;;22.17;48.28
75745;BME280;64359;51.366;-0.222;2023-04-03T04:28:19;102711.96;;;22.16;48.21
75745;BME280;64359;51.366;-0.222;2023-04-03T04:29:24;102714.30;;;22.16;48.09
75745;BME280;64359;51.366;-0.222;2023-04-03T04:30:28;102713.29;;;22.16;48.09
75745;BME280;64359;51.366;-0.222;2023-04-03T04:31:32;102717.49;;;22.16;48.07
75745;BME280;64359;51.366;-0.222;2023-04-03T04:32:37;102714.64;;;22.15;48.01
75745;BME280;64359;51.366;-0.222;2023-04-03T04:33:41;102714.09;;;22.15;48.07
75745;BME280;64359;51.366;-0.222;2023-04-03T04:34:45;102712.73;;;22.14;47.98
75745;BME280;64359;51.366;-0.222;2023-04-03T04:35:50;102711.13;;;22.14;47.91
75745;BME280;64359;51.366;-0.222;2023-04-03T04:36:54;102710.06;;;22.14;47.92
75745;BME280;64359;51.366;-0.222;2023-04-03T04:37:59;102714.81;;;22.13;48.01
75745;BME280;64359;51.366;-0.222;2023-04-03T04:39:03;102716.88;;;22.13;47.87
75745;BME280;64359;51.366;-0.222;2023-04-03T04:40:09;102713.48;;;22.12;47.84
75745;BME280;64359;51.366;-0.222;2023-04-03T04:41:14;102712.82;;;22.11;47.64
75745;BME280;64359;51.366;-0.222;2023-04-03T04:42:19;102708.20;;;22.11;47.98
75745;BME280;64359;51.366;-0.222;2023-04-03T04:43:23;102709.86;;;22.10;48.00
75745;BME280;64359;51.366;-0.222;2023-04-03T04:44:27;102709.74;;;22.10;47.82
75745;BME280;64359;51.366;-0.222;2023-04-03T04:45:31;102709.64;;;22.09;47.80
75745;BME280;64359;51.366;-0.222;2023-04-03T04:46:36;102707.47;;;22.09;47.67
75745;BME280;64359;51.366;-0.222;2023-04-03T04:47:40;102706.05;;;22.09;47.82
75745;BME280;64359;51.366;-0.222;2023-04-03T04:48:45;102708.10;;;22.08;47.84
75745;BME280;64359;51.366;-0.222;2023-04-03T04:49:49;102709.59;;;22.08;48.03
75745;BME280;64359;51.366;-0.222;2023-04-03T04:50:53;102713.05;;;22.08;47.84
75745;BME280;64359;51.366;-0.222;2023-04-03T04:51:58;102710.54;;;22.07;47.80
75745;BME280;64359;51.366;-0.222;2023-04-03T04:53:02;102708.80;;;22.06;47.91
75745;BME280;64359;51.366;-0.222;2023-04-03T04:54:07;102708.11;;;22.06;47.86
75745;BME280;64359;51.366;-0.222;2023-04-03T04:55:11;102709.20;;;22.06;47.89
75745;BME280;64359;51.366;-0.222;2023-04-03T04:56:15;102711.16;;;22.06;48.00
75745;BME280;64359;51.366;-0.222;2023-04-03T04:57:20;102711.02;;;22.06;48.22
75745;BME280;64359;51.366;-0.222;2023-04-03T04:58:24;102708.89;;;22.05;48.02
75745;BME280;64359;51.366;-0.222;2023-04-03T04:59:29;102710.89;;;22.05;47.85
75745;BME280;64359;51.366;-0.222;2023-04-03T05:00:33;102714.45;;;22.06;48.18
75745;BME280;64359;51.366;-0.222;2023-04-03T05:01:37;102714.26;;;22.06;48.03
75745;BME280;64359;51.366;-0.222;2023-04-03T05:02:42;102713.92;;;22.06;47.95
75745;BME280;64359;51.366;-0.222;2023-04-03T05:03:46;102715.69;;;22.06;48.09
75745;BME280;64359;51.366;-0.222;2023-04-03T05:04:51;102716.40;;;22.06;48.11
75745;BME280;64359;51.366;-0.222;2023-04-03T05:05:55;102717.48;;;22.07;48.13
75745;BME280;64359;51.366;-0.222;2023-04-03T05:07:00;102717.45;;;22.07;48.29
75745;BME280;64359;51.366;-0.222;2023-04-03T05:08:04;102718.50;;;22.07;48.00
75745;BME280;64359;51.366;-0.222;2023-04-03T05:09:09;102718.98;;;22.08;48.09
75745;BME280;64359;51.366;-0.222;2023-04-03T05:10:14;102716.99;;;22.08;48.04
75745;BME280;64359;51.366;-0.222;2023-04-03T05:11:18;102715.13;;;22.08;48.00
75745;BME280;64359;51.366;-0.222;2023-04-03T05:12:23;102717.61;;;22.09;48.05
75745;BME280;64359;51.366;-0.222;2023-04-03T05:13:27;102720.66;;;22.09;48.16
75745;BME280;64359;51.366;-0.222;2023-04-03T05:14:32;102713.35;;;22.10;48.13
75745;BME280;64359;51.366;-0.222;2023-04-03T05:15:36;102714.41;;;22.10;48.11
75745;BME280;64359;51.366;-0.222;2023-04-03T05:16:40;102711.14;;;22.10;48.15
75745;BME280;64359;51.366;-0.222;2023-04-03T05:17:44;102708.77;;;22.10;48.10
75745;BME280;64359;51.366;-0.222;2023-04-03T05:18:49;102710.71;;;22.11;48.12
75745;BME280;64359;51.366;-0.222;2023-04-03T05:19:53;102713.05;;;22.11;48.18
75745;BME280;64359;51.366;-0.222;2023-04-03T05:20:57;102713.73;;;22.11;48.17
75745;BME280;64359;51.366;-0.222;2023-04-03T05:22:02;102707.73;;;22.12;48.20
75745;BME280;64359;51.366;-0.222;2023-04-03T05:23:06;102710.79;;;22.12;48.15
75745;BME280;64359;51.366;-0.222;2023-04-03T05:24:11;102711.16;;;22.12;48.02
75745;BME280;64359;51.366;-0.222;2023-04-03T05:25:15;102713.51;;;22.12;48.06
75745;BME280;64359;51.366;-0.222;2023-04-03T05:26:19;102715.52;;;22.12;47.99
75745;BME280;64359;51.366;-0.222;2023-04-03T05:27:24;102716.73;;;22.12;48.08
75745;BME280;64359;51.366;-0.222;2023-04-03T05:28:31;102714.42;;;22.12;48.05
75745;BME280;64359;51.366;-0.222;2023-04-03T05:29:35;102716.54;;;22.12;47.98
75745;BME280;64359;51.366;-0.222;2023-04-03T05:30:39;102720.36;;;22.12;47.92
75745;BME280;64359;51.366;-0.222;2023-04-03T05:31:44;102723.48;;;22.12;47.97
75745;BME280;64359;51.366;-0.222;2023-04-03T05:32:48;102722.23;;;22.12;47.89
75745;BME280;64359;51.366;-0.222;2023-04-03T05:33:53;102720.25;;;22.11;47.83
75745;BME280;64359;51.366;-0.222;2023-04-03T05:34:57;102721.55;;;22.11;47.71
75745;BME280;64359;51.366;-0.222;2023-04-03T05:36:04;102721.40;;;22.11;47.78
75745;BME280;64359;51.366;-0.222;2023-04-03T05:37:10;102721.46;;;22.10;47.58